createdAt,value
2022-12-12T00:01:16.840Z,21.83
2022-12-12T00:03:43.970Z,20.97
2022-12-12T00:06:11.051Z,21.13
2022-12-12T00:08:38.135Z,20.83
2022-12-12T00:11:05.767Z,20.80
2022-12-12T00:13:33.291Z,19.80
2022-12-12T00:16:00.515Z,18.13
2022-12-12T00:18:27.610Z,19.60
2022-12-12T00:20:55.671Z,19.03
2022-12-12T00:23:23.310Z,18.27
2022-12-12T00:25:54.667Z,22.52
2022-12-12T00:28:21.754Z,19.33
2022-12-12T00:30:48.774Z,18.57
2022-12-12T00:33:15.795Z,17.70
2022-12-12T00:35:42.818Z,17.43
2022-12-12T00:38:09.944Z,17.83
2022-12-12T00:40:37.198Z,18.17
2022-12-12T00:43:04.290Z,19.50
2022-12-12T00:45:31.302Z,17.90
2022-12-12T00:47:58.332Z,17.77
2022-12-12T00:50:25.330Z,17.50
2022-12-12T00:52:52.393Z,17.37
2022-12-12T00:55:19.467Z,17.50
2022-12-12T00:57:46.456Z,19.13
2022-12-12T01:00:14.465Z,17.13
2022-12-12T01:02:41.579Z,18.43
2022-12-12T01:05:08.826Z,20.25
2022-12-12T01:07:36.218Z,18.80
2022-12-12T01:10:03.228Z,17.50
2022-12-12T01:12:30.271Z,18.03
2022-12-12T01:14:57.335Z,17.53
2022-12-12T01:17:24.387Z,17.07
2022-12-12T01:19:51.483Z,17.03
2022-12-12T01:22:18.513Z,17.37
2022-12-12T01:24:45.571Z,17.13
2022-12-12T01:27:12.684Z,17.70
2022-12-12T01:29:39.694Z,16.83
2022-12-12T01:32:06.780Z,16.03
2022-12-12T01:34:33.791Z,15.53
2022-12-12T01:37:00.807Z,16.83
2022-12-12T01:39:27.818Z,16.27
2022-12-12T01:41:54.809Z,15.83
2022-12-12T01:44:41.902Z,16.43
2022-12-12T01:47:08.901Z,14.57
2022-12-12T01:49:36.374Z,15.73
2022-12-12T01:52:08.490Z,16.17
2022-12-12T01:54:36.777Z,15.33
2022-12-12T01:57:05.726Z,14.90
2022-12-12T01:59:33.782Z,14.60
2022-12-12T02:02:01.067Z,14.60
2022-12-12T02:04:28.701Z,15.23
2022-12-12T02:06:56.499Z,15.33
2022-12-12T02:09:25.283Z,15.43
2022-12-12T02:11:53.373Z,16.47
2022-12-12T02:14:23.026Z,14.73
2022-12-12T02:16:52.885Z,15.63
2022-12-12T02:19:38.516Z,16.80
2022-12-12T02:22:05.488Z,15.40
2022-12-12T02:24:51.062Z,16.10
2022-12-12T02:27:18.036Z,16.27
2022-12-12T02:30:02.023Z,16.13
2022-12-12T02:32:38.922Z,16.10
2022-12-12T02:35:15.269Z,16.27
2022-12-12T02:37:49.929Z,15.80
2022-12-12T02:40:16.949Z,17.57
2022-12-12T02:42:47.183Z,17.17
2022-12-12T02:45:14.454Z,17.13
2022-12-12T02:47:44.509Z,16.63
2022-12-12T02:50:20.229Z,21.67
2022-12-12T02:52:48.025Z,17.43
2022-12-12T02:55:15.918Z,16.27
2022-12-12T02:57:43.372Z,16.80
2022-12-12T03:00:12.346Z,17.37
2022-12-12T03:02:42.139Z,22.20
2022-12-12T03:05:28.009Z,17.90
2022-12-12T03:08:00.893Z,17.93
2022-12-12T03:10:27.899Z,17.53
2022-12-12T03:13:06.049Z,17.20
2022-12-12T03:15:41.128Z,16.97
2022-12-12T03:18:17.709Z,16.70
2022-12-12T03:21:00.258Z,18.10
2022-12-12T03:23:29.184Z,17.50
2022-12-12T03:26:09.556Z,18.50
2022-12-12T03:28:40.167Z,17.47
2022-12-12T03:31:09.538Z,18.63
2022-12-12T03:33:45.315Z,19.50
2022-12-12T03:36:18.591Z,22.57
2022-12-12T03:38:56.934Z,19.43
2022-12-12T03:41:26.638Z,19.97
2022-12-12T03:43:57.816Z,17.90
2022-12-12T03:46:27.775Z,20.17
2022-12-12T03:48:58.564Z,19.83
2022-12-12T03:51:29.768Z,20.40
2022-12-12T03:53:59.317Z,19.10
2022-12-12T03:56:27.049Z,21.03
2022-12-12T03:59:00.225Z,20.83
2022-12-12T04:01:29.997Z,20.90
2022-12-12T04:04:00.569Z,20.77
2022-12-12T04:06:35.812Z,22.50
2022-12-12T04:09:29.875Z,21.53
2022-12-12T04:12:15.851Z,22.10
2022-12-12T04:14:50.592Z,20.20
2022-12-12T04:17:19.526Z,25.25
2022-12-12T04:20:15.641Z,19.67
2022-12-12T04:23:04.579Z,19.00
2022-12-12T04:25:59.995Z,18.03
2022-12-12T04:28:28.315Z,17.30
2022-12-12T04:30:55.749Z,17.30
2022-12-12T04:33:24.105Z,17.67
2022-12-12T04:35:51.831Z,17.00
2022-12-12T04:38:21.768Z,17.20
2022-12-12T04:40:51.637Z,19.17
2022-12-12T04:43:21.235Z,16.40
2022-12-12T04:45:54.100Z,17.87
2022-12-12T04:48:23.239Z,19.63
2022-12-12T04:50:52.062Z,19.50
2022-12-12T04:53:21.322Z,19.07
2022-12-12T04:55:50.729Z,18.87
2022-12-12T04:58:17.822Z,18.63
2022-12-12T05:00:48.174Z,17.07
2022-12-12T05:03:28.973Z,18.43
2022-12-12T05:05:59.297Z,20.17
2022-12-12T05:08:29.236Z,18.33
2022-12-12T05:10:57.159Z,19.00
2022-12-12T05:13:27.912Z,20.37
2022-12-12T05:15:56.134Z,20.13
2022-12-12T05:18:23.572Z,20.73
2022-12-12T05:20:50.691Z,20.57
2022-12-12T05:23:17.707Z,21.10
2022-12-12T05:25:44.722Z,20.20
2022-12-12T05:28:11.818Z,21.07
2022-12-12T05:30:38.850Z,20.73
2022-12-12T05:33:05.965Z,20.73
2022-12-12T05:35:34.215Z,21.33
2022-12-12T05:38:03.980Z,22.00
2022-12-12T05:40:31.022Z,21.53
2022-12-12T05:42:58.128Z,21.77
2022-12-12T05:45:25.121Z,22.57
2022-12-12T05:47:52.116Z,22.03
2022-12-12T05:50:19.182Z,21.97
2022-12-12T05:52:46.285Z,21.97
2022-12-12T05:55:13.481Z,22.60
2022-12-12T05:57:40.731Z,23.97
2022-12-12T06:00:08.194Z,23.37
2022-12-12T06:02:35.324Z,24.00
2022-12-12T06:05:02.428Z,23.53
2022-12-12T06:07:29.469Z,23.37
2022-12-12T06:09:56.485Z,23.87
2022-12-12T06:12:23.608Z,22.50
2022-12-12T06:14:50.602Z,21.03
2022-12-12T06:17:17.598Z,22.47
2022-12-12T06:19:44.590Z,22.03
2022-12-12T06:22:11.645Z,22.33
2022-12-12T06:24:38.637Z,23.70
2022-12-12T06:27:05.634Z,22.47
2022-12-12T06:29:32.988Z,22.43
2022-12-12T06:32:00.026Z,23.30
2022-12-12T06:34:27.022Z,21.53
2022-12-12T06:36:54.029Z,23.70
2022-12-12T06:39:21.093Z,22.37
2022-12-12T06:41:48.120Z,22.20
2022-12-12T06:44:15.399Z,22.10
2022-12-12T06:46:42.652Z,20.97
2022-12-12T06:49:10.155Z,22.53
2022-12-12T06:51:43.861Z,22.53
2022-12-12T06:54:18.069Z,22.63
2022-12-12T06:56:48.544Z,21.57
2022-12-12T06:59:16.477Z,21.73
2022-12-12T07:01:43.606Z,21.93
2022-12-12T07:04:12.032Z,21.30
2022-12-12T07:06:39.074Z,21.90
2022-12-12T07:09:06.612Z,23.43
2022-12-12T07:11:33.621Z,22.13
2022-12-12T07:14:03.628Z,21.53
2022-12-12T07:16:30.674Z,23.67
2022-12-12T07:18:57.738Z,21.93
2022-12-12T07:21:24.843Z,21.67
2022-12-12T07:23:51.987Z,29.15
2022-12-12T07:26:20.350Z,23.43
2022-12-12T07:28:47.359Z,21.70
2022-12-12T07:31:15.849Z,22.40
2022-12-12T07:33:44.662Z,22.97
2022-12-12T07:36:12.856Z,19.17
2022-12-12T07:38:39.923Z,20.73
2022-12-12T07:41:09.012Z,20.37
2022-12-12T07:43:42.822Z,20.90
2022-12-12T07:46:11.183Z,21.10
2022-12-12T07:48:38.409Z,22.87
2022-12-12T07:51:05.493Z,23.67
2022-12-12T07:53:32.686Z,21.50
2022-12-12T07:55:59.704Z,21.77
2022-12-12T07:58:27.018Z,21.97
2022-12-12T08:00:54.114Z,24.37
2022-12-12T08:03:21.186Z,33.55
2022-12-12T08:05:48.349Z,26.70
2022-12-12T08:08:15.399Z,26.90
2022-12-12T08:10:42.494Z,23.10
2022-12-12T08:13:09.516Z,23.07
2022-12-12T08:15:36.572Z,23.37
2022-12-12T08:18:03.594Z,22.07
2022-12-12T08:20:30.619Z,22.07
2022-12-12T08:22:57.637Z,20.47
2022-12-12T08:25:24.700Z,20.77
2022-12-12T08:27:51.744Z,19.80
2022-12-12T08:30:18.905Z,21.23
2022-12-12T08:32:45.924Z,21.23
2022-12-12T08:35:13.892Z,21.67
2022-12-12T08:37:41.244Z,24.08
2022-12-12T08:40:08.610Z,21.77
2022-12-12T08:42:35.672Z,21.40
2022-12-12T08:45:02.759Z,20.80
2022-12-12T08:47:29.780Z,20.90
2022-12-12T08:49:56.784Z,20.43
2022-12-12T08:52:23.802Z,20.60
2022-12-12T08:54:50.807Z,20.33
2022-12-12T08:57:22.737Z,20.17
2022-12-12T08:59:52.775Z,20.17
2022-12-12T09:02:19.965Z,20.50
2022-12-12T09:04:47.171Z,19.90
2022-12-12T09:07:14.216Z,19.97
2022-12-12T09:09:41.232Z,20.53
2022-12-12T09:12:08.469Z,20.47
2022-12-12T09:14:35.648Z,21.00
2022-12-12T09:17:02.686Z,19.93
2022-12-12T09:19:29.684Z,20.20
2022-12-12T09:21:56.943Z,18.93
2022-12-12T09:24:25.394Z,19.70
2022-12-12T09:26:52.462Z,21.80
2022-12-12T09:29:19.495Z,20.00
2022-12-12T09:31:46.802Z,20.43
2022-12-12T09:34:15.662Z,20.20
2022-12-12T09:36:42.693Z,18.97
2022-12-12T09:39:09.736Z,20.27
2022-12-12T09:41:36.803Z,23.17
2022-12-12T09:44:07.130Z,20.27
2022-12-12T09:46:45.099Z,19.70
2022-12-12T09:49:15.203Z,20.88
2022-12-12T09:51:46.605Z,20.67
2022-12-12T09:54:14.728Z,21.50
2022-12-12T09:56:57.301Z,20.10
2022-12-12T09:59:44.563Z,21.13
2022-12-12T10:02:26.804Z,23.55
2022-12-12T10:05:17.170Z,20.40
2022-12-12T10:07:44.180Z,20.23
2022-12-12T10:10:11.331Z,21.60
2022-12-12T10:12:38.642Z,18.83
2022-12-12T10:15:07.544Z,18.17
2022-12-12T10:17:45.975Z,19.23
2022-12-12T10:20:13.163Z,17.90
2022-12-12T10:22:57.156Z,17.10
2022-12-12T10:25:26.191Z,17.70
2022-12-12T10:27:56.058Z,17.90
2022-12-12T10:30:23.077Z,18.20
2022-12-12T10:33:02.484Z,19.93
2022-12-12T10:35:35.024Z,17.60
2022-12-12T10:38:02.235Z,19.13
2022-12-12T10:40:44.321Z,18.73
2022-12-12T10:43:14.848Z,19.15
2022-12-12T10:45:48.417Z,20.00
2022-12-12T10:48:15.529Z,21.10
2022-12-12T10:50:49.456Z,21.00
2022-12-12T10:53:16.538Z,20.83
2022-12-12T10:55:43.553Z,19.10
2022-12-12T10:58:10.585Z,18.97
2022-12-12T11:00:42.337Z,19.50
2022-12-12T11:03:26.429Z,21.67
2022-12-12T11:05:54.169Z,20.37
2022-12-12T11:08:36.818Z,19.53
2022-12-12T11:11:09.121Z,19.73
2022-12-12T11:13:40.921Z,20.27
2022-12-12T11:16:13.526Z,18.97
2022-12-12T11:18:40.886Z,19.97
2022-12-12T11:21:08.060Z,19.60
2022-12-12T11:23:36.315Z,19.37
2022-12-12T11:26:23.630Z,19.87
2022-12-12T11:28:56.640Z,20.40
2022-12-12T11:31:25.206Z,21.10
2022-12-12T11:33:55.718Z,19.00
2022-12-12T11:36:23.790Z,17.43
2022-12-12T11:38:57.546Z,18.47
2022-12-12T11:41:27.693Z,18.53
2022-12-12T11:44:01.316Z,18.27
2022-12-12T11:46:29.613Z,17.30
2022-12-12T11:48:59.349Z,18.07
2022-12-12T11:51:40.327Z,18.20
2022-12-12T11:54:14.925Z,17.27
2022-12-12T11:56:45.287Z,18.20
2022-12-12T11:59:24.464Z,16.63
2022-12-12T12:02:11.940Z,18.13
2022-12-12T12:04:58.056Z,18.17
2022-12-12T12:07:31.240Z,17.97
2022-12-12T12:10:03.546Z,17.20
2022-12-12T12:12:53.740Z,18.13
2022-12-12T12:15:20.825Z,17.77
2022-12-12T12:18:01.485Z,17.83
2022-12-12T12:20:47.450Z,19.83
2022-12-12T12:23:28.396Z,18.93
2022-12-12T12:25:58.846Z,18.93
2022-12-12T12:28:40.213Z,20.83
2022-12-12T12:31:16.736Z,21.30
2022-12-12T12:33:52.977Z,20.50
2022-12-12T12:36:24.558Z,20.73
2022-12-12T12:39:05.153Z,20.30
2022-12-12T12:41:47.929Z,23.65
2022-12-12T12:44:23.417Z,21.57
2022-12-12T12:47:00.085Z,21.40
2022-12-12T12:49:29.404Z,21.23
2022-12-12T12:51:56.474Z,22.90
2022-12-12T12:54:25.916Z,23.03
2022-12-12T12:56:56.064Z,21.90
2022-12-12T12:59:26.398Z,21.67
2022-12-12T13:01:55.545Z,21.20
2022-12-12T13:04:27.894Z,24.60
2022-12-12T13:07:03.950Z,22.10
2022-12-12T13:09:38.785Z,22.23
2022-12-12T13:12:12.914Z,21.27
2022-12-12T13:14:54.427Z,23.87
2022-12-12T13:17:24.862Z,27.05
2022-12-12T13:19:54.001Z,22.47
2022-12-12T13:22:29.347Z,23.17
2022-12-12T13:25:00.181Z,22.90
2022-12-12T13:27:30.319Z,22.23
2022-12-12T13:30:26.755Z,22.87
2022-12-12T13:32:53.773Z,23.33
2022-12-12T13:35:36.076Z,22.57
2022-12-12T13:38:03.538Z,23.57
2022-12-12T13:40:40.722Z,23.63
2022-12-12T13:43:10.196Z,23.10
2022-12-12T13:45:39.932Z,23.73
2022-12-12T13:48:07.030Z,24.77
2022-12-12T13:50:34.074Z,24.33
2022-12-12T13:53:07.276Z,24.80
2022-12-12T13:55:37.944Z,25.43
2022-12-12T13:58:05.775Z,28.95
2022-12-12T14:00:33.982Z,26.87
2022-12-12T14:03:02.784Z,24.50
2022-12-12T14:05:41.149Z,25.33
2022-12-12T14:08:19.899Z,24.43
2022-12-12T14:10:50.009Z,25.23
2022-12-12T14:13:22.968Z,24.00
2022-12-12T14:15:59.586Z,24.53
2022-12-12T14:18:30.336Z,25.33
2022-12-12T14:21:02.235Z,24.73
2022-12-12T14:23:33.387Z,25.63
2022-12-12T14:26:01.102Z,24.63
2022-12-12T14:28:29.392Z,24.70
2022-12-12T14:31:15.483Z,24.50
2022-12-12T14:34:02.827Z,31.52
2022-12-12T14:36:29.826Z,24.70
2022-12-12T14:39:05.114Z,24.23
2022-12-12T14:41:35.177Z,23.40
2022-12-12T14:44:37.675Z,24.47
2022-12-12T14:46:50.623Z,22.23
2022-12-12T14:49:18.597Z,23.07
2022-12-12T14:51:54.683Z,21.60
2022-12-12T14:54:23.211Z,22.07
2022-12-12T14:56:53.145Z,22.57
2022-12-12T14:59:20.459Z,22.07
2022-12-12T15:01:52.635Z,21.57
2022-12-12T15:04:33.236Z,21.13
2022-12-12T15:07:01.603Z,20.60
2022-12-12T15:09:35.982Z,20.63
2022-12-12T15:12:12.317Z,20.80
2022-12-12T15:14:40.170Z,20.77
2022-12-12T15:17:07.199Z,20.87
2022-12-12T15:19:40.242Z,19.77
2022-12-12T15:22:12.321Z,21.20
2022-12-12T15:24:39.955Z,19.67
2022-12-12T15:27:07.289Z,19.87
2022-12-12T15:29:36.108Z,21.37
2022-12-12T15:32:08.419Z,21.70
2022-12-12T15:34:35.593Z,20.23
2022-12-12T15:37:21.634Z,18.97
2022-12-12T15:39:59.616Z,20.67
2022-12-12T15:42:26.635Z,20.67
2022-12-12T15:44:53.859Z,20.10
2022-12-12T15:47:21.433Z,22.08
2022-12-12T15:49:48.509Z,22.90
2022-12-12T15:52:29.316Z,21.63
2022-12-12T15:54:57.511Z,19.83
2022-12-12T15:57:26.255Z,20.07
2022-12-12T15:59:55.228Z,21.17
2022-12-12T16:02:25.449Z,20.67
2022-12-12T16:05:06.856Z,20.83
2022-12-12T16:07:37.624Z,19.67
2022-12-12T16:10:10.828Z,19.33
2022-12-12T16:12:57.918Z,20.17
2022-12-12T16:15:32.731Z,21.63
2022-12-12T16:18:04.713Z,22.93
2022-12-12T16:20:31.865Z,22.43
2022-12-12T16:23:09.605Z,22.13
2022-12-12T16:25:36.815Z,23.97
2022-12-12T16:28:09.932Z,25.23
2022-12-12T16:30:38.128Z,22.80
2022-12-12T16:33:12.387Z,21.97
2022-12-12T16:35:39.459Z,23.27
2022-12-12T16:38:16.206Z,24.97
2022-12-12T16:40:43.626Z,23.87
2022-12-12T16:43:12.840Z,23.20
2022-12-12T16:45:40.332Z,22.63
2022-12-12T16:48:26.726Z,23.80
2022-12-12T16:50:58.277Z,23.57
2022-12-12T16:53:25.339Z,23.77
2022-12-12T16:55:52.588Z,24.53
2022-12-12T16:58:21.245Z,23.57
2022-12-12T17:00:49.033Z,23.87
2022-12-12T17:03:17.170Z,29.80
2022-12-12T17:05:44.847Z,25.27
2022-12-12T17:08:12.105Z,25.80
2022-12-12T17:10:39.412Z,28.77
2022-12-12T17:13:07.551Z,31.13
2022-12-12T17:15:34.642Z,27.67
2022-12-12T17:18:02.024Z,29.60
2022-12-12T17:20:37.267Z,26.70
2022-12-12T17:25:50.518Z,26.40
2022-12-12T17:28:18.949Z,26.77
2022-12-12T17:30:46.958Z,27.87
2022-12-12T17:33:19.805Z,26.33
2022-12-12T17:35:46.884Z,25.17
2022-12-12T17:38:16.374Z,34.72
2022-12-12T17:40:43.972Z,29.50
2022-12-12T17:43:11.005Z,29.57
2022-12-12T17:45:38.912Z,29.10
2022-12-12T17:48:06.412Z,28.53
2022-12-12T17:50:39.905Z,29.10
2022-12-12T17:53:08.495Z,26.77
2022-12-12T17:55:52.975Z,29.13
2022-12-12T17:58:27.990Z,28.43
2022-12-12T18:00:56.742Z,29.17
2022-12-12T18:03:23.964Z,26.17
2022-12-12T18:05:51.016Z,26.73
2022-12-12T18:08:18.375Z,30.53
2022-12-12T18:10:45.478Z,30.23
2022-12-12T18:13:12.566Z,33.53
2022-12-12T18:15:41.269Z,32.40
2022-12-12T18:18:08.347Z,34.90
2022-12-12T18:20:35.530Z,29.23
2022-12-12T18:23:02.979Z,28.00
2022-12-12T18:25:30.233Z,26.97
2022-12-12T18:27:57.343Z,26.70
2022-12-12T18:30:24.373Z,29.50
2022-12-12T18:32:51.413Z,30.07
2022-12-12T18:35:18.468Z,26.93
2022-12-12T18:37:45.515Z,27.93
2022-12-12T18:40:12.831Z,30.27
2022-12-12T18:42:40.128Z,28.80
2022-12-12T18:45:09.196Z,29.23
2022-12-12T18:47:36.228Z,28.53
2022-12-12T18:50:03.245Z,27.93
2022-12-12T18:52:30.282Z,26.77
2022-12-12T18:54:57.315Z,26.50
2022-12-12T18:57:24.347Z,28.07
2022-12-12T18:59:51.373Z,40.10
2022-12-12T19:02:18.497Z,35.77
2022-12-12T19:04:46.895Z,34.90
2022-12-12T19:07:13.946Z,30.60
2022-12-12T19:09:41.157Z,31.10
2022-12-12T19:12:08.374Z,57.40
2022-12-12T19:14:59.754Z,96.00
2022-12-12T19:17:26.266Z,46.47
2022-12-12T19:19:54.080Z,28.13
2022-12-12T19:25:09.604Z,22.47
2022-12-12T19:27:36.637Z,23.00
2022-12-12T19:30:04.076Z,25.43
2022-12-12T19:32:31.100Z,25.90
2022-12-12T19:34:59.324Z,33.53
2022-12-12T19:37:26.698Z,33.10
2022-12-12T19:39:53.804Z,26.17
2022-12-12T19:42:21.131Z,25.67
2022-12-12T19:44:48.234Z,25.30
2022-12-12T19:47:16.766Z,23.97
2022-12-12T19:49:43.791Z,23.30
2022-12-12T19:52:14.368Z,22.77
2022-12-12T19:54:41.661Z,23.73
2022-12-12T19:57:08.679Z,24.50
2022-12-12T19:59:35.722Z,25.13
2022-12-12T20:02:03.476Z,27.53
2022-12-12T20:04:30.502Z,29.00
2022-12-12T20:06:57.656Z,27.47
2022-12-12T20:09:29.165Z,30.13
2022-12-12T20:11:57.336Z,26.47
2022-12-12T20:14:25.977Z,24.07
2022-12-12T20:16:54.039Z,24.00
2022-12-12T20:19:21.838Z,25.73
2022-12-12T20:22:05.618Z,28.77
2022-12-12T20:24:33.860Z,22.57
2022-12-12T20:27:03.628Z,25.93
2022-12-12T20:29:31.158Z,23.00
2022-12-12T20:31:59.928Z,24.30
2022-12-12T20:34:27.663Z,22.90
2022-12-12T20:36:58.506Z,21.80
2022-12-12T20:39:25.963Z,25.17
2022-12-12T20:41:53.865Z,26.43
2022-12-12T20:44:22.398Z,29.60
2022-12-12T20:46:49.566Z,25.67
2022-12-12T20:49:17.842Z,32.85
2022-12-12T20:52:00.935Z,28.27
2022-12-12T20:54:28.886Z,27.70
2022-12-12T20:56:56.656Z,25.40
2022-12-12T20:59:24.255Z,25.87
2022-12-12T21:01:51.738Z,25.17
2022-12-12T21:04:18.882Z,27.90
2022-12-12T21:06:48.682Z,28.57
2022-12-12T21:09:22.751Z,27.17
2022-12-12T21:11:50.639Z,26.67
2022-12-12T21:14:17.694Z,29.03
2022-12-12T21:16:44.713Z,28.67
2022-12-12T21:19:12.816Z,29.60
2022-12-12T21:21:40.931Z,32.17
2022-12-12T21:24:08.398Z,28.20
2022-12-12T21:26:35.433Z,25.57
2022-12-12T21:29:02.941Z,28.55
2022-12-12T21:31:31.368Z,26.27
2022-12-12T21:33:58.966Z,26.43
2022-12-12T21:36:27.925Z,28.73
2022-12-12T21:38:55.692Z,24.40
2022-12-12T21:41:23.289Z,26.03
2022-12-12T21:43:50.533Z,27.20
2022-12-12T21:46:19.112Z,25.90
2022-12-12T21:48:46.520Z,29.60
2022-12-12T21:51:14.928Z,28.73
2022-12-12T21:53:42.098Z,27.70
2022-12-12T21:56:10.778Z,30.43
2022-12-12T21:58:38.719Z,31.63
2022-12-12T22:01:10.933Z,30.73
2022-12-12T22:03:38.442Z,34.65
2022-12-12T22:06:11.469Z,29.87
2022-12-12T22:08:39.134Z,26.80
2022-12-12T22:11:07.436Z,27.97
2022-12-12T22:13:40.029Z,29.07
2022-12-12T22:16:10.427Z,28.50
2022-12-12T22:18:37.580Z,26.47
2022-12-12T22:21:05.274Z,26.83
2022-12-12T22:23:32.400Z,27.27
2022-12-12T22:25:59.430Z,23.63
2022-12-12T22:28:28.437Z,26.47
2022-12-12T22:30:56.025Z,25.53
2022-12-12T22:33:23.108Z,24.10
2022-12-12T22:35:50.122Z,24.50
2022-12-12T22:38:17.166Z,25.67
2022-12-12T22:40:53.100Z,25.80
2022-12-12T22:43:20.135Z,25.90
2022-12-12T22:45:47.152Z,34.92
2022-12-12T22:48:14.230Z,26.67
2022-12-12T22:50:41.292Z,26.90
2022-12-12T22:53:08.613Z,25.23
2022-12-12T22:55:36.269Z,24.37
2022-12-12T22:58:03.546Z,23.33
2022-12-12T23:00:30.818Z,24.87
2022-12-12T23:02:57.927Z,24.70
2022-12-12T23:05:25.617Z,23.53
2022-12-12T23:07:52.779Z,23.70
2022-12-12T23:10:19.878Z,23.27
2022-12-12T23:12:46.912Z,23.50
2022-12-12T23:15:14.327Z,23.57
2022-12-12T23:17:41.696Z,22.63
2022-12-12T23:20:10.333Z,30.42
2022-12-12T23:22:37.454Z,23.20
2022-12-12T23:25:04.691Z,22.57
2022-12-12T23:27:31.906Z,22.20
2022-12-12T23:29:58.939Z,22.30
2022-12-12T23:32:26.019Z,21.27
2022-12-12T23:34:53.019Z,21.80
2022-12-12T23:37:20.082Z,22.87
2022-12-12T23:39:51.050Z,22.33
2022-12-12T23:42:18.269Z,22.40
2022-12-12T23:44:50.711Z,22.47
2022-12-12T23:47:18.038Z,21.77
2022-12-12T23:49:45.043Z,24.80
2022-12-12T23:52:12.141Z,24.13
2022-12-12T23:54:39.171Z,23.10
2022-12-12T23:57:06.393Z,23.57
2022-12-12T23:59:33.443Z,31.02
